sensor_id;sensor_type;location;lat;lon;timestamp;P1;durP1;ratioP1;P2;durP2;ratioP2
31818;SDS011;18384;48.860;9.188;2023-12-07T00:00:02;10.35;;;6.15;;
31818;SDS011;18384;48.860;9.188;2023-12-07T00:02:28;12.43;;;6.22;;
31818;SDS011;18384;48.860;9.188;2023-12-07T00:04:54;11.30;;;5.90;;
31818;SDS011;18384;48.860;9.188;2023-12-07T00:07:21;10.70;;;5.90;;
31818;SDS011;18384;48.860;9.188;2023-12-07T00:09:47;9.00;;;5.85;;
31818;SDS011;18384;48.860;9.188;2023-12-07T00:12:13;8.93;;;5.75;;
31818;SDS011;18384;48.860;9.188;2023-12-07T00:14:39;9.07;;;5.75;;
31818;SDS011;18384;48.860;9.188;2023-12-07T00:17:05;11.60;;;6.20;;
31818;SDS011;18384;48.860;9.188;2023-12-07T00:19:31;10.98;;;6.35;;
31818;SDS011;18384;48.860;9.188;2023-12-07T00:21:57;10.18;;;5.35;;
31818;SDS011;18384;48.860;9.188;2023-12-07T00:24:23;8.40;;;5.68;;
31818;SDS011;18384;48.860;9.188;2023-12-07T00:26:49;12.13;;;6.97;;
31818;SDS011;18384;48.860;9.188;2023-12-07T00:29:16;15.07;;;6.80;;
31818;SDS011;18384;48.860;9.188;2023-12-07T00:31:42;10.13;;;5.55;;
31818;SDS011;18384;48.860;9.188;2023-12-07T00:34:09;9.85;;;5.87;;
31818;SDS011;18384;48.860;9.188;2023-12-07T00:36:35;11.57;;;6.40;;
31818;SDS011;18384;48.860;9.188;2023-12-07T00:39:01;11.50;;;5.57;;
31818;SDS011;18384;48.860;9.188;2023-12-07T00:41:29;14.60;;;6.03;;
31818;SDS011;18384;48.860;9.188;2023-12-07T00:43:55;13.57;;;6.85;;
31818;SDS011;18384;48.860;9.188;2023-12-07T00:46:21;9.30;;;5.93;;
31818;SDS011;18384;48.860;9.188;2023-12-07T00:48:48;10.50;;;5.35;;
31818;SDS011;18384;48.860;9.188;2023-12-07T00:51:14;11.55;;;5.72;;
31818;SDS011;18384;48.860;9.188;2023-12-07T00:53:40;10.52;;;5.85;;
31818;SDS011;18384;48.860;9.188;2023-12-07T00:56:07;15.43;;;5.65;;
31818;SDS011;18384;48.860;9.188;2023-12-07T00:58:33;9.55;;;5.30;;
31818;SDS011;18384;48.860;9.188;2023-12-07T01:00:59;9.55;;;5.55;;
31818;SDS011;18384;48.860;9.188;2023-12-07T01:03:25;11.20;;;6.60;;
31818;SDS011;18384;48.860;9.188;2023-12-07T01:05:52;10.48;;;5.57;;
31818;SDS011;18384;48.860;9.188;2023-12-07T01:08:18;10.40;;;6.20;;
31818;SDS011;18384;48.860;9.188;2023-12-07T01:10:44;12.05;;;6.62;;
31818;SDS011;18384;48.860;9.188;2023-12-07T01:13:10;13.50;;;6.53;;
31818;SDS011;18384;48.860;9.188;2023-12-07T01:15:36;11.52;;;6.47;;
31818;SDS011;18384;48.860;9.188;2023-12-07T01:18:02;11.43;;;6.28;;
31818;SDS011;18384;48.860;9.188;2023-12-07T01:20:28;11.18;;;6.57;;
31818;SDS011;18384;48.860;9.188;2023-12-07T01:22:55;11.00;;;6.70;;
31818;SDS011;18384;48.860;9.188;2023-12-07T01:25:21;13.77;;;6.68;;
31818;SDS011;18384;48.860;9.188;2023-12-07T01:27:47;12.93;;;6.82;;
31818;SDS011;18384;48.860;9.188;2023-12-07T01:30:14;9.45;;;6.28;;
31818;SDS011;18384;48.860;9.188;2023-12-07T01:32:40;11.40;;;6.97;;
31818;SDS011;18384;48.860;9.188;2023-12-07T01:35:06;9.73;;;6.05;;
31818;SDS011;18384;48.860;9.188;2023-12-07T01:37:33;12.32;;;6.62;;
31818;SDS011;18384;48.860;9.188;2023-12-07T01:40:00;9.93;;;5.90;;
31818;SDS011;18384;48.860;9.188;2023-12-07T01:42:31;13.05;;;6.75;;
31818;SDS011;18384;48.860;9.188;2023-12-07T01:44:57;10.20;;;6.07;;
31818;SDS011;18384;48.860;9.188;2023-12-07T01:47:23;10.15;;;6.57;;
31818;SDS011;18384;48.860;9.188;2023-12-07T01:49:49;12.07;;;7.10;;
31818;SDS011;18384;48.860;9.188;2023-12-07T01:52:15;10.82;;;6.70;;
31818;SDS011;18384;48.860;9.188;2023-12-07T01:54:45;10.20;;;5.80;;
31818;SDS011;18384;48.860;9.188;2023-12-07T01:57:11;10.38;;;6.53;;
31818;SDS011;18384;48.860;9.188;2023-12-07T01:59:37;12.37;;;6.95;;
31818;SDS011;18384;48.860;9.188;2023-12-07T02:02:03;12.10;;;7.18;;
31818;SDS011;18384;48.860;9.188;2023-12-07T02:04:29;10.75;;;6.62;;
31818;SDS011;18384;48.860;9.188;2023-12-07T02:06:56;12.50;;;6.28;;
31818;SDS011;18384;48.860;9.188;2023-12-07T02:09:23;10.55;;;6.93;;
31818;SDS011;18384;48.860;9.188;2023-12-07T02:11:49;9.88;;;6.20;;
31818;SDS011;18384;48.860;9.188;2023-12-07T02:14:15;11.73;;;7.03;;
31818;SDS011;18384;48.860;9.188;2023-12-07T02:16:45;11.25;;;7.10;;
31818;SDS011;18384;48.860;9.188;2023-12-07T02:19:19;11.07;;;6.57;;
31818;SDS011;18384;48.860;9.188;2023-12-07T02:23:56;12.18;;;6.68;;
31818;SDS011;18384;48.860;9.188;2023-12-07T02:26:36;12.40;;;6.70;;
31818;SDS011;18384;48.860;9.188;2023-12-07T02:29:03;11.90;;;7.15;;
31818;SDS011;18384;48.860;9.188;2023-12-07T02:31:29;10.32;;;6.97;;
31818;SDS011;18384;48.860;9.188;2023-12-07T02:33:56;11.60;;;7.03;;
31818;SDS011;18384;48.860;9.188;2023-12-07T02:36:24;10.68;;;7.18;;
31818;SDS011;18384;48.860;9.188;2023-12-07T02:38:53;12.98;;;6.37;;
31818;SDS011;18384;48.860;9.188;2023-12-07T02:41:23;13.07;;;7.18;;
31818;SDS011;18384;48.860;9.188;2023-12-07T02:43:52;17.25;;;7.00;;
31818;SDS011;18384;48.860;9.188;2023-12-07T02:46:19;15.60;;;7.60;;
31818;SDS011;18384;48.860;9.188;2023-12-07T02:48:45;13.77;;;7.40;;
31818;SDS011;18384;48.860;9.188;2023-12-07T02:53:37;12.65;;;7.45;;
31818;SDS011;18384;48.860;9.188;2023-12-07T02:56:03;10.50;;;6.75;;
31818;SDS011;18384;48.860;9.188;2023-12-07T02:58:30;12.02;;;7.00;;
31818;SDS011;18384;48.860;9.188;2023-12-07T03:00:56;12.55;;;6.82;;
31818;SDS011;18384;48.860;9.188;2023-12-07T03:03:22;15.10;;;7.32;;
31818;SDS011;18384;48.860;9.188;2023-12-07T03:05:48;10.57;;;6.57;;
31818;SDS011;18384;48.860;9.188;2023-12-07T03:08:14;9.80;;;6.35;;
31818;SDS011;18384;48.860;9.188;2023-12-07T03:10:41;14.55;;;7.35;;
31818;SDS011;18384;48.860;9.188;2023-12-07T03:13:07;11.48;;;7.30;;
31818;SDS011;18384;48.860;9.188;2023-12-07T03:15:33;11.40;;;7.25;;
31818;SDS011;18384;48.860;9.188;2023-12-07T03:17:59;12.88;;;6.95;;
31818;SDS011;18384;48.860;9.188;2023-12-07T03:20:25;10.43;;;6.93;;
31818;SDS011;18384;48.860;9.188;2023-12-07T03:22:51;14.32;;;7.62;;
31818;SDS011;18384;48.860;9.188;2023-12-07T03:25:17;9.27;;;6.55;;
31818;SDS011;18384;48.860;9.188;2023-12-07T03:27:43;11.68;;;6.60;;
31818;SDS011;18384;48.860;9.188;2023-12-07T03:30:10;10.63;;;6.35;;
31818;SDS011;18384;48.860;9.188;2023-12-07T03:32:36;12.45;;;6.82;;
31818;SDS011;18384;48.860;9.188;2023-12-07T03:35:03;11.73;;;6.65;;
31818;SDS011;18384;48.860;9.188;2023-12-07T03:37:29;9.82;;;6.80;;
31818;SDS011;18384;48.860;9.188;2023-12-07T03:39:55;13.23;;;7.18;;
31818;SDS011;18384;48.860;9.188;2023-12-07T03:42:22;10.77;;;7.50;;
31818;SDS011;18384;48.860;9.188;2023-12-07T03:44:48;11.40;;;7.05;;
31818;SDS011;18384;48.860;9.188;2023-12-07T03:47:14;12.05;;;8.10;;
31818;SDS011;18384;48.860;9.188;2023-12-07T03:49:40;10.10;;;6.90;;
31818;SDS011;18384;48.860;9.188;2023-12-07T03:52:07;12.88;;;6.03;;
31818;SDS011;18384;48.860;9.188;2023-12-07T03:54:33;14.43;;;7.82;;
31818;SDS011;18384;48.860;9.188;2023-12-07T03:56:59;14.10;;;7.37;;
31818;SDS011;18384;48.860;9.188;2023-12-07T03:59:26;13.30;;;7.55;;
31818;SDS011;18384;48.860;9.188;2023-12-07T04:01:52;14.48;;;7.75;;
31818;SDS011;18384;48.860;9.188;2023-12-07T04:04:18;13.02;;;7.65;;
31818;SDS011;18384;48.860;9.188;2023-12-07T04:06:44;13.80;;;7.37;;
31818;SDS011;18384;48.860;9.188;2023-12-07T04:09:10;13.25;;;7.35;;
31818;SDS011;18384;48.860;9.188;2023-12-07T04:11:36;13.30;;;6.72;;
31818;SDS011;18384;48.860;9.188;2023-12-07T04:14:03;16.65;;;7.40;;
31818;SDS011;18384;48.860;9.188;2023-12-07T04:16:29;13.43;;;7.47;;
31818;SDS011;18384;48.860;9.188;2023-12-07T04:18:55;13.50;;;7.90;;
31818;SDS011;18384;48.860;9.188;2023-12-07T04:21:21;16.23;;;8.10;;
31818;SDS011;18384;48.860;9.188;2023-12-07T04:23:47;14.43;;;8.15;;
31818;SDS011;18384;48.860;9.188;2023-12-07T04:26:14;17.48;;;8.13;;
31818;SDS011;18384;48.860;9.188;2023-12-07T04:28:40;14.07;;;7.90;;
31818;SDS011;18384;48.860;9.188;2023-12-07T04:31:06;13.40;;;8.23;;
31818;SDS011;18384;48.860;9.188;2023-12-07T04:33:32;12.57;;;7.93;;
31818;SDS011;18384;48.860;9.188;2023-12-07T04:35:59;15.20;;;7.95;;
31818;SDS011;18384;48.860;9.188;2023-12-07T04:38:25;12.60;;;7.78;;
31818;SDS011;18384;48.860;9.188;2023-12-07T04:40:51;12.63;;;8.07;;
31818;SDS011;18384;48.860;9.188;2023-12-07T04:43:17;14.43;;;7.82;;
31818;SDS011;18384;48.860;9.188;2023-12-07T04:45:43;16.08;;;8.60;;
31818;SDS011;18384;48.860;9.188;2023-12-07T04:48:09;14.80;;;8.43;;
31818;SDS011;18384;48.860;9.188;2023-12-07T04:50:35;16.48;;;8.30;;
31818;SDS011;18384;48.860;9.188;2023-12-07T04:53:01;11.98;;;7.50;;
31818;SDS011;18384;48.860;9.188;2023-12-07T04:55:28;15.82;;;8.63;;
31818;SDS011;18384;48.860;9.188;2023-12-07T04:57:54;17.08;;;9.68;;
31818;SDS011;18384;48.860;9.188;2023-12-07T05:00:20;16.95;;;9.07;;
31818;SDS011;18384;48.860;9.188;2023-12-07T05:05:13;15.48;;;8.93;;
31818;SDS011;18384;48.860;9.188;2023-12-07T05:07:39;24.85;;;13.00;;
31818;SDS011;18384;48.860;9.188;2023-12-07T05:10:05;20.62;;;12.95;;
31818;SDS011;18384;48.860;9.188;2023-12-07T05:12:32;22.55;;;13.70;;
31818;SDS011;18384;48.860;9.188;2023-12-07T05:15:18;20.92;;;10.95;;
31818;SDS011;18384;48.860;9.188;2023-12-07T05:17:44;17.50;;;10.48;;
31818;SDS011;18384;48.860;9.188;2023-12-07T05:20:10;17.48;;;10.23;;
31818;SDS011;18384;48.860;9.188;2023-12-07T05:22:38;19.02;;;10.25;;
31818;SDS011;18384;48.860;9.188;2023-12-07T05:25:04;17.80;;;10.32;;
31818;SDS011;18384;48.860;9.188;2023-12-07T05:27:31;17.90;;;9.43;;
31818;SDS011;18384;48.860;9.188;2023-12-07T05:29:57;16.77;;;8.95;;
31818;SDS011;18384;48.860;9.188;2023-12-07T05:32:23;16.87;;;9.77;;
31818;SDS011;18384;48.860;9.188;2023-12-07T05:34:49;18.52;;;10.73;;
31818;SDS011;18384;48.860;9.188;2023-12-07T05:37:15;15.35;;;10.23;;
31818;SDS011;18384;48.860;9.188;2023-12-07T05:39:41;16.90;;;9.82;;
31818;SDS011;18384;48.860;9.188;2023-12-07T05:42:07;15.90;;;9.07;;
31818;SDS011;18384;48.860;9.188;2023-12-07T05:44:34;15.90;;;9.73;;
31818;SDS011;18384;48.860;9.188;2023-12-07T05:47:00;22.75;;;11.85;;
31818;SDS011;18384;48.860;9.188;2023-12-07T05:49:26;18.45;;;10.02;;
31818;SDS011;18384;48.860;9.188;2023-12-07T05:51:52;16.58;;;10.18;;
31818;SDS011;18384;48.860;9.188;2023-12-07T05:54:18;21.98;;;12.00;;
31818;SDS011;18384;48.860;9.188;2023-12-07T05:56:47;17.23;;;8.65;;
31818;SDS011;18384;48.860;9.188;2023-12-07T06:01:39;16.27;;;8.30;;
31818;SDS011;18384;48.860;9.188;2023-12-07T06:04:08;19.52;;;10.45;;
31818;SDS011;18384;48.860;9.188;2023-12-07T06:06:35;18.67;;;10.32;;
31818;SDS011;18384;48.860;9.188;2023-12-07T06:09:01;17.55;;;9.88;;
31818;SDS011;18384;48.860;9.188;2023-12-07T06:11:28;14.30;;;9.20;;
31818;SDS011;18384;48.860;9.188;2023-12-07T06:13:54;19.85;;;9.25;;
31818;SDS011;18384;48.860;9.188;2023-12-07T06:16:20;12.77;;;8.73;;
31818;SDS011;18384;48.860;9.188;2023-12-07T06:18:46;15.35;;;9.55;;
31818;SDS011;18384;48.860;9.188;2023-12-07T06:21:13;19.65;;;9.55;;
31818;SDS011;18384;48.860;9.188;2023-12-07T06:23:40;17.27;;;8.35;;
31818;SDS011;18384;48.860;9.188;2023-12-07T06:26:07;16.87;;;8.15;;
31818;SDS011;18384;48.860;9.188;2023-12-07T06:28:33;12.98;;;8.13;;
31818;SDS011;18384;48.860;9.188;2023-12-07T06:31:08;15.15;;;8.07;;
31818;SDS011;18384;48.860;9.188;2023-12-07T06:33:34;15.80;;;8.13;;
31818;SDS011;18384;48.860;9.188;2023-12-07T06:36:01;15.88;;;8.38;;
31818;SDS011;18384;48.860;9.188;2023-12-07T06:38:28;25.23;;;11.40;;
31818;SDS011;18384;48.860;9.188;2023-12-07T06:40:55;19.33;;;8.65;;
31818;SDS011;18384;48.860;9.188;2023-12-07T06:45:48;12.83;;;8.57;;
31818;SDS011;18384;48.860;9.188;2023-12-07T06:48:14;15.65;;;8.63;;
31818;SDS011;18384;48.860;9.188;2023-12-07T06:50:40;15.85;;;8.95;;
31818;SDS011;18384;48.860;9.188;2023-12-07T06:53:06;20.27;;;9.13;;
31818;SDS011;18384;48.860;9.188;2023-12-07T06:55:33;13.30;;;8.25;;
31818;SDS011;18384;48.860;9.188;2023-12-07T06:57:59;18.33;;;9.13;;
31818;SDS011;18384;48.860;9.188;2023-12-07T07:00:25;22.67;;;11.60;;
31818;SDS011;18384;48.860;9.188;2023-12-07T07:02:51;20.40;;;11.48;;
31818;SDS011;18384;48.860;9.188;2023-12-07T07:05:17;29.33;;;10.05;;
31818;SDS011;18384;48.860;9.188;2023-12-07T07:10:09;28.65;;;9.82;;
31818;SDS011;18384;48.860;9.188;2023-12-07T07:12:37;15.90;;;9.27;;
31818;SDS011;18384;48.860;9.188;2023-12-07T07:15:04;19.33;;;9.32;;
31818;SDS011;18384;48.860;9.188;2023-12-07T07:17:33;24.75;;;11.12;;
31818;SDS011;18384;48.860;9.188;2023-12-07T07:19:59;25.50;;;10.15;;
31818;SDS011;18384;48.860;9.188;2023-12-07T07:22:26;20.23;;;11.02;;
31818;SDS011;18384;48.860;9.188;2023-12-07T07:24:52;21.00;;;10.93;;
31818;SDS011;18384;48.860;9.188;2023-12-07T07:27:18;18.70;;;11.80;;
31818;SDS011;18384;48.860;9.188;2023-12-07T07:29:45;21.10;;;10.30;;
31818;SDS011;18384;48.860;9.188;2023-12-07T07:34:37;33.53;;;17.77;;
31818;SDS011;18384;48.860;9.188;2023-12-07T07:37:04;27.48;;;15.82;;
31818;SDS011;18384;48.860;9.188;2023-12-07T07:39:32;26.00;;;14.25;;
31818;SDS011;18384;48.860;9.188;2023-12-07T07:41:58;24.98;;;13.45;;
31818;SDS011;18384;48.860;9.188;2023-12-07T07:44:25;20.55;;;12.20;;
31818;SDS011;18384;48.860;9.188;2023-12-07T07:46:51;21.87;;;12.63;;
31818;SDS011;18384;48.860;9.188;2023-12-07T07:49:17;24.80;;;13.30;;
31818;SDS011;18384;48.860;9.188;2023-12-07T07:51:43;20.10;;;11.98;;
31818;SDS011;18384;48.860;9.188;2023-12-07T07:54:09;20.35;;;11.65;;
31818;SDS011;18384;48.860;9.188;2023-12-07T07:56:35;21.35;;;11.60;;
31818;SDS011;18384;48.860;9.188;2023-12-07T07:59:01;25.02;;;11.43;;
31818;SDS011;18384;48.860;9.188;2023-12-07T08:03:54;23.50;;;12.18;;
31818;SDS011;18384;48.860;9.188;2023-12-07T08:06:20;24.00;;;12.80;;
31818;SDS011;18384;48.860;9.188;2023-12-07T08:08:46;25.25;;;12.15;;
31818;SDS011;18384;48.860;9.188;2023-12-07T08:11:14;22.65;;;12.45;;
31818;SDS011;18384;48.860;9.188;2023-12-07T08:13:40;20.40;;;12.60;;
31818;SDS011;18384;48.860;9.188;2023-12-07T08:16:09;22.77;;;12.70;;
31818;SDS011;18384;48.860;9.188;2023-12-07T08:18:35;21.60;;;12.77;;
31818;SDS011;18384;48.860;9.188;2023-12-07T08:21:01;20.27;;;11.80;;
31818;SDS011;18384;48.860;9.188;2023-12-07T08:23:27;22.83;;;11.82;;
31818;SDS011;18384;48.860;9.188;2023-12-07T08:25:54;21.92;;;11.57;;
31818;SDS011;18384;48.860;9.188;2023-12-07T08:28:22;20.67;;;11.73;;
31818;SDS011;18384;48.860;9.188;2023-12-07T08:30:48;18.95;;;11.43;;
31818;SDS011;18384;48.860;9.188;2023-12-07T08:33:14;21.40;;;11.32;;
31818;SDS011;18384;48.860;9.188;2023-12-07T08:35:40;17.75;;;10.82;;
31818;SDS011;18384;48.860;9.188;2023-12-07T08:38:06;19.90;;;11.60;;
31818;SDS011;18384;48.860;9.188;2023-12-07T08:40:32;26.80;;;12.25;;
31818;SDS011;18384;48.860;9.188;2023-12-07T08:42:59;23.48;;;12.20;;
31818;SDS011;18384;48.860;9.188;2023-12-07T08:45:25;19.98;;;12.07;;
31818;SDS011;18384;48.860;9.188;2023-12-07T08:47:51;21.90;;;12.02;;
31818;SDS011;18384;48.860;9.188;2023-12-07T08:50:17;23.08;;;12.32;;
31818;SDS011;18384;48.860;9.188;2023-12-07T08:52:43;17.58;;;10.88;;
31818;SDS011;18384;48.860;9.188;2023-12-07T08:57:35;18.17;;;11.35;;
31818;SDS011;18384;48.860;9.188;2023-12-07T09:00:02;22.27;;;11.85;;
31818;SDS011;18384;48.860;9.188;2023-12-07T09:02:30;19.20;;;11.10;;
31818;SDS011;18384;48.860;9.188;2023-12-07T09:04:56;25.80;;;11.32;;
31818;SDS011;18384;48.860;9.188;2023-12-07T09:07:22;19.50;;;11.93;;
31818;SDS011;18384;48.860;9.188;2023-12-07T09:09:48;22.20;;;11.00;;
31818;SDS011;18384;48.860;9.188;2023-12-07T09:12:14;20.33;;;12.15;;
31818;SDS011;18384;48.860;9.188;2023-12-07T09:14:41;21.48;;;11.73;;
31818;SDS011;18384;48.860;9.188;2023-12-07T09:19:33;21.37;;;10.98;;
31818;SDS011;18384;48.860;9.188;2023-12-07T09:21:59;19.37;;;10.85;;
31818;SDS011;18384;48.860;9.188;2023-12-07T09:24:25;18.55;;;11.20;;
31818;SDS011;18384;48.860;9.188;2023-12-07T09:29:18;19.55;;;11.12;;
31818;SDS011;18384;48.860;9.188;2023-12-07T09:31:44;19.08;;;11.18;;
31818;SDS011;18384;48.860;9.188;2023-12-07T09:34:10;15.23;;;10.38;;
31818;SDS011;18384;48.860;9.188;2023-12-07T09:36:36;19.90;;;10.85;;
31818;SDS011;18384;48.860;9.188;2023-12-07T09:39:03;17.73;;;11.23;;
31818;SDS011;18384;48.860;9.188;2023-12-07T09:41:29;20.48;;;11.48;;
31818;SDS011;18384;48.860;9.188;2023-12-07T09:43:55;18.52;;;11.00;;
31818;SDS011;18384;48.860;9.188;2023-12-07T09:46:21;19.45;;;11.80;;
31818;SDS011;18384;48.860;9.188;2023-12-07T09:48:48;19.48;;;11.30;;
31818;SDS011;18384;48.860;9.188;2023-12-07T09:51:15;20.90;;;10.57;;
31818;SDS011;18384;48.860;9.188;2023-12-07T09:53:42;17.10;;;11.00;;
31818;SDS011;18384;48.860;9.188;2023-12-07T09:56:10;21.45;;;11.82;;
31818;SDS011;18384;48.860;9.188;2023-12-07T09:58:36;20.10;;;12.98;;
31818;SDS011;18384;48.860;9.188;2023-12-07T10:01:06;17.90;;;11.25;;
31818;SDS011;18384;48.860;9.188;2023-12-07T10:03:32;19.62;;;11.10;;
31818;SDS011;18384;48.860;9.188;2023-12-07T10:05:59;21.08;;;11.63;;
31818;SDS011;18384;48.860;9.188;2023-12-07T10:08:27;16.87;;;10.57;;
31818;SDS011;18384;48.860;9.188;2023-12-07T10:11:07;15.32;;;9.75;;
31818;SDS011;18384;48.860;9.188;2023-12-07T10:13:35;19.10;;;10.93;;
31818;SDS011;18384;48.860;9.188;2023-12-07T10:16:09;20.80;;;10.73;;
31818;SDS011;18384;48.860;9.188;2023-12-07T10:18:41;16.92;;;10.65;;
31818;SDS011;18384;48.860;9.188;2023-12-07T10:21:10;16.45;;;10.93;;
31818;SDS011;18384;48.860;9.188;2023-12-07T10:23:37;19.62;;;10.45;;
31818;SDS011;18384;48.860;9.188;2023-12-07T10:26:05;15.20;;;9.68;;
31818;SDS011;18384;48.860;9.188;2023-12-07T10:28:34;17.33;;;8.95;;
31818;SDS011;18384;48.860;9.188;2023-12-07T10:31:03;11.63;;;7.57;;
31818;SDS011;18384;48.860;9.188;2023-12-07T10:33:34;17.02;;;8.40;;
31818;SDS011;18384;48.860;9.188;2023-12-07T10:36:02;15.10;;;7.85;;
31818;SDS011;18384;48.860;9.188;2023-12-07T10:38:31;13.57;;;8.20;;
31818;SDS011;18384;48.860;9.188;2023-12-07T10:41:03;11.57;;;7.37;;
31818;SDS011;18384;48.860;9.188;2023-12-07T10:43:36;13.50;;;7.82;;
31818;SDS011;18384;48.860;9.188;2023-12-07T10:46:06;13.90;;;7.53;;
31818;SDS011;18384;48.860;9.188;2023-12-07T10:48:37;11.73;;;7.45;;
31818;SDS011;18384;48.860;9.188;2023-12-07T10:51:06;15.13;;;7.10;;
31818;SDS011;18384;48.860;9.188;2023-12-07T10:53:37;12.48;;;7.70;;
31818;SDS011;18384;48.860;9.188;2023-12-07T10:56:13;15.52;;;7.82;;
31818;SDS011;18384;48.860;9.188;2023-12-07T11:00:40;13.20;;;6.70;;
31818;SDS011;18384;48.860;9.188;2023-12-07T11:03:16;10.90;;;6.03;;
31818;SDS011;18384;48.860;9.188;2023-12-07T11:05:44;13.13;;;6.35;;
31818;SDS011;18384;48.860;9.188;2023-12-07T11:08:14;13.40;;;6.43;;
31818;SDS011;18384;48.860;9.188;2023-12-07T11:11:00;13.40;;;6.82;;
31818;SDS011;18384;48.860;9.188;2023-12-07T11:17:00;9.90;;;6.00;;
31818;SDS011;18384;48.860;9.188;2023-12-07T11:22:16;8.95;;;5.93;;
31818;SDS011;18384;48.860;9.188;2023-12-07T11:24:52;15.15;;;6.45;;
31818;SDS011;18384;48.860;9.188;2023-12-07T11:27:22;11.43;;;6.40;;
31818;SDS011;18384;48.860;9.188;2023-12-07T11:29:50;11.60;;;5.65;;
31818;SDS011;18384;48.860;9.188;2023-12-07T11:32:17;11.70;;;6.05;;
31818;SDS011;18384;48.860;9.188;2023-12-07T11:34:43;10.45;;;6.80;;
31818;SDS011;18384;48.860;9.188;2023-12-07T11:37:10;8.20;;;5.72;;
31818;SDS011;18384;48.860;9.188;2023-12-07T11:39:41;9.80;;;5.30;;
31818;SDS011;18384;48.860;9.188;2023-12-07T11:42:11;7.00;;;4.40;;
31818;SDS011;18384;48.860;9.188;2023-12-07T11:44:41;14.02;;;5.25;;
31818;SDS011;18384;48.860;9.188;2023-12-07T11:47:10;9.82;;;4.78;;
31818;SDS011;18384;48.860;9.188;2023-12-07T11:49:43;8.02;;;5.70;;
31818;SDS011;18384;48.860;9.188;2023-12-07T11:52:13;10.57;;;5.57;;
31818;SDS011;18384;48.860;9.188;2023-12-07T11:54:49;9.65;;;5.68;;
31818;SDS011;18384;48.860;9.188;2023-12-07T11:57:16;8.10;;;5.18;;
31818;SDS011;18384;48.860;9.188;2023-12-07T11:59:44;10.57;;;4.85;;
31818;SDS011;18384;48.860;9.188;2023-12-07T12:02:13;11.70;;;5.82;;
31818;SDS011;18384;48.860;9.188;2023-12-07T12:04:42;13.62;;;5.10;;
31818;SDS011;18384;48.860;9.188;2023-12-07T12:07:09;7.28;;;4.35;;
31818;SDS011;18384;48.860;9.188;2023-12-07T12:12:05;5.95;;;3.90;;
31818;SDS011;18384;48.860;9.188;2023-12-07T12:14:31;9.52;;;5.50;;
31818;SDS011;18384;48.860;9.188;2023-12-07T12:16:57;10.77;;;6.03;;
31818;SDS011;18384;48.860;9.188;2023-12-07T12:19:24;14.13;;;6.35;;
31818;SDS011;18384;48.860;9.188;2023-12-07T12:21:50;9.65;;;6.28;;
31818;SDS011;18384;48.860;9.188;2023-12-07T12:26:43;13.45;;;6.15;;
31818;SDS011;18384;48.860;9.188;2023-12-07T12:29:10;9.95;;;6.15;;
31818;SDS011;18384;48.860;9.188;2023-12-07T12:31:37;13.77;;;6.20;;
31818;SDS011;18384;48.860;9.188;2023-12-07T12:34:06;11.68;;;6.15;;
31818;SDS011;18384;48.860;9.188;2023-12-07T12:36:37;10.48;;;6.10;;
31818;SDS011;18384;48.860;9.188;2023-12-07T12:41:33;9.57;;;5.55;;
31818;SDS011;18384;48.860;9.188;2023-12-07T12:44:00;11.30;;;6.30;;
31818;SDS011;18384;48.860;9.188;2023-12-07T12:46:26;13.88;;;5.97;;
31818;SDS011;18384;48.860;9.188;2023-12-07T12:51:24;18.87;;;6.12;;
31818;SDS011;18384;48.860;9.188;2023-12-07T12:53:52;10.52;;;5.68;;
31818;SDS011;18384;48.860;9.188;2023-12-07T12:56:20;9.32;;;5.75;;
31818;SDS011;18384;48.860;9.188;2023-12-07T12:58:51;7.40;;;4.72;;
31818;SDS011;18384;48.860;9.188;2023-12-07T13:01:18;8.50;;;4.68;;
31818;SDS011;18384;48.860;9.188;2023-12-07T13:03:46;10.35;;;5.28;;
31818;SDS011;18384;48.860;9.188;2023-12-07T13:06:15;51.58;;;15.48;;
31818;SDS011;18384;48.860;9.188;2023-12-07T13:08:46;12.27;;;6.28;;
31818;SDS011;18384;48.860;9.188;2023-12-07T13:11:16;11.27;;;6.43;;
31818;SDS011;18384;48.860;9.188;2023-12-07T13:13:44;10.30;;;6.37;;
31818;SDS011;18384;48.860;9.188;2023-12-07T13:16:15;31.62;;;18.25;;
31818;SDS011;18384;48.860;9.188;2023-12-07T13:18:41;11.27;;;5.37;;
31818;SDS011;18384;48.860;9.188;2023-12-07T13:21:07;11.50;;;7.65;;
31818;SDS011;18384;48.860;9.188;2023-12-07T13:23:36;9.52;;;5.37;;
31818;SDS011;18384;48.860;9.188;2023-12-07T13:26:03;9.23;;;5.15;;
31818;SDS011;18384;48.860;9.188;2023-12-07T13:28:29;8.30;;;5.15;;
31818;SDS011;18384;48.860;9.188;2023-12-07T13:30:55;9.50;;;5.28;;
31818;SDS011;18384;48.860;9.188;2023-12-07T13:33:21;9.02;;;5.30;;
31818;SDS011;18384;48.860;9.188;2023-12-07T13:35:48;13.57;;;6.50;;
31818;SDS011;18384;48.860;9.188;2023-12-07T13:38:15;15.30;;;6.45;;
31818;SDS011;18384;48.860;9.188;2023-12-07T13:40:45;29.60;;;9.25;;
31818;SDS011;18384;48.860;9.188;2023-12-07T13:43:12;15.00;;;6.55;;
31818;SDS011;18384;48.860;9.188;2023-12-07T13:45:38;29.08;;;9.20;;
31818;SDS011;18384;48.860;9.188;2023-12-07T13:48:04;26.08;;;7.03;;
31818;SDS011;18384;48.860;9.188;2023-12-07T13:52:56;9.50;;;4.80;;
31818;SDS011;18384;48.860;9.188;2023-12-07T13:55:22;7.10;;;4.68;;
31818;SDS011;18384;48.860;9.188;2023-12-07T14:00:18;7.07;;;4.30;;
31818;SDS011;18384;48.860;9.188;2023-12-07T14:02:45;11.10;;;4.30;;
31818;SDS011;18384;48.860;9.188;2023-12-07T14:05:11;8.02;;;4.03;;
31818;SDS011;18384;48.860;9.188;2023-12-07T14:07:41;6.28;;;3.70;;
31818;SDS011;18384;48.860;9.188;2023-12-07T14:10:08;7.25;;;4.07;;
31818;SDS011;18384;48.860;9.188;2023-12-07T14:15:00;5.87;;;4.12;;
31818;SDS011;18384;48.860;9.188;2023-12-07T14:17:26;9.00;;;4.95;;
31818;SDS011;18384;48.860;9.188;2023-12-07T14:19:52;9.13;;;4.30;;
31818;SDS011;18384;48.860;9.188;2023-12-07T14:22:19;12.70;;;5.18;;
31818;SDS011;18384;48.860;9.188;2023-12-07T14:24:45;16.90;;;7.72;;
31818;SDS011;18384;48.860;9.188;2023-12-07T14:27:13;10.95;;;4.82;;
31818;SDS011;18384;48.860;9.188;2023-12-07T14:29:40;17.05;;;6.37;;
31818;SDS011;18384;48.860;9.188;2023-12-07T14:32:06;16.85;;;7.43;;
31818;SDS011;18384;48.860;9.188;2023-12-07T14:34:34;16.10;;;6.05;;
31818;SDS011;18384;48.860;9.188;2023-12-07T14:37:01;15.73;;;6.80;;
31818;SDS011;18384;48.860;9.188;2023-12-07T14:39:30;19.60;;;7.30;;
31818;SDS011;18384;48.860;9.188;2023-12-07T14:41:56;8.77;;;4.43;;
31818;SDS011;18384;48.860;9.188;2023-12-07T14:44:22;17.37;;;6.37;;
31818;SDS011;18384;48.860;9.188;2023-12-07T14:46:48;15.30;;;6.10;;
31818;SDS011;18384;48.860;9.188;2023-12-07T14:49:15;6.93;;;3.42;;
31818;SDS011;18384;48.860;9.188;2023-12-07T14:51:45;5.80;;;2.53;;
31818;SDS011;18384;48.860;9.188;2023-12-07T14:54:11;6.32;;;3.10;;
31818;SDS011;18384;48.860;9.188;2023-12-07T14:56:37;4.40;;;2.78;;
31818;SDS011;18384;48.860;9.188;2023-12-07T14:59:05;3.80;;;2.35;;
31818;SDS011;18384;48.860;9.188;2023-12-07T15:01:31;6.12;;;2.45;;
31818;SDS011;18384;48.860;9.188;2023-12-07T15:03:57;5.80;;;2.15;;
31818;SDS011;18384;48.860;9.188;2023-12-07T15:06:24;5.10;;;2.25;;
31818;SDS011;18384;48.860;9.188;2023-12-07T15:08:51;5.53;;;2.70;;
31818;SDS011;18384;48.860;9.188;2023-12-07T15:11:18;7.25;;;2.53;;
31818;SDS011;18384;48.860;9.188;2023-12-07T15:13:44;6.35;;;2.75;;
31818;SDS011;18384;48.860;9.188;2023-12-07T15:16:11;7.62;;;2.53;;
31818;SDS011;18384;48.860;9.188;2023-12-07T15:18:38;13.75;;;5.20;;
31818;SDS011;18384;48.860;9.188;2023-12-07T15:21:10;22.67;;;9.93;;
31818;SDS011;18384;48.860;9.188;2023-12-07T15:23:40;38.65;;;17.67;;